sensor_id;sensor_type;location;lat;lon;timestamp;P1;durP1;ratioP1;P2;durP2;ratioP2
61391;SDS011;47261;52.892;5.738;2023-05-10T00:31:13;12.38;;;5.90;;
61391;SDS011;47261;52.892;5.738;2023-05-10T00:33:39;17.67;;;7.73;;
61391;SDS011;47261;52.892;5.738;2023-05-10T00:36:05;20.90;;;9.87;;
61391;SDS011;47261;52.892;5.738;2023-05-10T00:38:32;20.52;;;9.55;;
61391;SDS011;47261;52.892;5.738;2023-05-10T00:40:58;24.30;;;8.82;;
61391;SDS011;47261;52.892;5.738;2023-05-10T00:43:24;17.70;;;6.40;;
61391;SDS011;47261;52.892;5.738;2023-05-10T00:45:49;23.17;;;8.43;;
61391;SDS011;47261;52.892;5.738;2023-05-10T00:48:15;20.30;;;7.35;;
61391;SDS011;47261;52.892;5.738;2023-05-10T00:50:41;19.83;;;6.43;;
61391;SDS011;47261;52.892;5.738;2023-05-10T00:53:07;20.80;;;6.70;;
61391;SDS011;47261;52.892;5.738;2023-05-10T00:55:33;22.30;;;8.07;;
61391;SDS011;47261;52.892;5.738;2023-05-10T00:57:59;17.38;;;6.88;;
61391;SDS011;47261;52.892;5.738;2023-05-10T01:00:25;20.90;;;8.10;;
61391;SDS011;47261;52.892;5.738;2023-05-10T01:02:52;22.85;;;7.45;;
61391;SDS011;47261;52.892;5.738;2023-05-10T01:05:18;25.47;;;8.33;;
61391;SDS011;47261;52.892;5.738;2023-05-10T01:07:44;19.65;;;7.10;;
61391;SDS011;47261;52.892;5.738;2023-05-10T01:10:10;22.13;;;7.80;;
61391;SDS011;47261;52.892;5.738;2023-05-10T01:12:37;22.33;;;8.45;;
61391;SDS011;47261;52.892;5.738;2023-05-10T01:15:05;23.00;;;7.75;;
61391;SDS011;47261;52.892;5.738;2023-05-10T01:17:33;23.42;;;8.30;;
61391;SDS011;47261;52.892;5.738;2023-05-10T01:20:01;23.67;;;7.93;;
61391;SDS011;47261;52.892;5.738;2023-05-10T01:36:55;17.60;;;7.67;;
61391;SDS011;47261;52.892;5.738;2023-05-10T01:39:36;24.80;;;8.65;;
61391;SDS011;47261;52.892;5.738;2023-05-10T01:42:11;23.13;;;8.93;;
61391;SDS011;47261;52.892;5.738;2023-05-10T01:49:45;19.77;;;7.60;;
61391;SDS011;47261;52.892;5.738;2023-05-10T01:52:15;26.25;;;9.05;;
61391;SDS011;47261;52.892;5.738;2023-05-10T01:55:00;27.30;;;9.88;;
61391;SDS011;47261;52.892;5.738;2023-05-10T01:57:30;25.52;;;8.88;;
61391;SDS011;47261;52.892;5.738;2023-05-10T01:59:58;21.08;;;8.23;;
61391;SDS011;47261;52.892;5.738;2023-05-10T02:02:26;23.33;;;9.23;;
61391;SDS011;47261;52.892;5.738;2023-05-10T02:04:53;21.40;;;8.05;;
61391;SDS011;47261;52.892;5.738;2023-05-10T02:07:20;22.25;;;7.20;;
61391;SDS011;47261;52.892;5.738;2023-05-10T02:09:48;15.85;;;6.40;;
61391;SDS011;47261;52.892;5.738;2023-05-10T02:12:15;14.02;;;4.55;;
61391;SDS011;47261;52.892;5.738;2023-05-10T02:14:42;12.77;;;3.90;;
61391;SDS011;47261;52.892;5.738;2023-05-10T02:17:09;14.65;;;4.60;;
61391;SDS011;47261;52.892;5.738;2023-05-10T02:19:36;15.55;;;5.13;;
61391;SDS011;47261;52.892;5.738;2023-05-10T02:22:04;17.33;;;6.22;;
61391;SDS011;47261;52.892;5.738;2023-05-10T02:24:30;17.40;;;6.30;;
61391;SDS011;47261;52.892;5.738;2023-05-10T02:26:58;18.03;;;6.20;;
61391;SDS011;47261;52.892;5.738;2023-05-10T02:29:25;23.15;;;6.97;;
61391;SDS011;47261;52.892;5.738;2023-05-10T02:31:52;20.13;;;7.38;;
61391;SDS011;47261;52.892;5.738;2023-05-10T02:34:20;20.67;;;7.13;;
61391;SDS011;47261;52.892;5.738;2023-05-10T02:36:48;21.98;;;7.15;;
61391;SDS011;47261;52.892;5.738;2023-05-10T02:39:15;25.33;;;7.83;;
61391;SDS011;47261;52.892;5.738;2023-05-10T02:41:44;21.70;;;7.47;;
61391;SDS011;47261;52.892;5.738;2023-05-10T02:44:11;13.20;;;5.50;;
61391;SDS011;47261;52.892;5.738;2023-05-10T02:46:40;18.20;;;5.85;;
61391;SDS011;47261;52.892;5.738;2023-05-10T02:49:06;19.70;;;6.97;;
61391;SDS011;47261;52.892;5.738;2023-05-10T02:51:32;23.40;;;7.68;;
61391;SDS011;47261;52.892;5.738;2023-05-10T02:54:02;21.10;;;7.57;;
61391;SDS011;47261;52.892;5.738;2023-05-10T02:56:35;20.75;;;8.48;;
61391;SDS011;47261;52.892;5.738;2023-05-10T02:59:04;23.65;;;8.90;;
61391;SDS011;47261;52.892;5.738;2023-05-10T03:01:30;21.83;;;7.73;;
61391;SDS011;47261;52.892;5.738;2023-05-10T03:03:55;21.57;;;8.30;;
61391;SDS011;47261;52.892;5.738;2023-05-10T03:06:21;20.50;;;7.35;;
61391;SDS011;47261;52.892;5.738;2023-05-10T03:08:47;22.03;;;7.27;;
61391;SDS011;47261;52.892;5.738;2023-05-10T03:14:04;19.38;;;7.53;;
61391;SDS011;47261;52.892;5.738;2023-05-10T03:16:35;20.33;;;7.27;;
61391;SDS011;47261;52.892;5.738;2023-05-10T03:21:36;23.65;;;7.60;;
61391;SDS011;47261;52.892;5.738;2023-05-10T03:24:06;26.25;;;7.57;;
61391;SDS011;47261;52.892;5.738;2023-05-10T03:26:34;21.23;;;7.32;;
61391;SDS011;47261;52.892;5.738;2023-05-10T03:29:00;18.03;;;6.77;;
61391;SDS011;47261;52.892;5.738;2023-05-10T03:31:27;20.00;;;7.68;;
61391;SDS011;47261;52.892;5.738;2023-05-10T03:33:53;18.95;;;6.55;;
61391;SDS011;47261;52.892;5.738;2023-05-10T03:36:19;12.10;;;5.50;;
61391;SDS011;47261;52.892;5.738;2023-05-10T03:38:45;11.48;;;4.60;;
61391;SDS011;47261;52.892;5.738;2023-05-10T03:41:10;15.17;;;5.70;;
61391;SDS011;47261;52.892;5.738;2023-05-10T03:43:36;14.10;;;6.63;;
61391;SDS011;47261;52.892;5.738;2023-05-10T03:46:05;12.77;;;6.17;;
61391;SDS011;47261;52.892;5.738;2023-05-10T03:48:31;13.73;;;5.22;;
61391;SDS011;47261;52.892;5.738;2023-05-10T03:50:57;11.38;;;4.65;;
61391;SDS011;47261;52.892;5.738;2023-05-10T03:53:22;12.63;;;4.77;;
61391;SDS011;47261;52.892;5.738;2023-05-10T03:55:48;10.82;;;4.40;;
61391;SDS011;47261;52.892;5.738;2023-05-10T03:58:14;10.13;;;4.17;;
61391;SDS011;47261;52.892;5.738;2023-05-10T04:00:40;11.18;;;4.43;;
61391;SDS011;47261;52.892;5.738;2023-05-10T04:03:10;15.90;;;5.53;;
61391;SDS011;47261;52.892;5.738;2023-05-10T04:05:36;10.85;;;4.18;;
61391;SDS011;47261;52.892;5.738;2023-05-10T04:08:02;10.63;;;4.27;;
61391;SDS011;47261;52.892;5.738;2023-05-10T04:10:28;10.43;;;4.18;;
61391;SDS011;47261;52.892;5.738;2023-05-10T04:12:54;8.73;;;3.88;;
61391;SDS011;47261;52.892;5.738;2023-05-10T04:15:20;13.67;;;5.57;;
61391;SDS011;47261;52.892;5.738;2023-05-10T04:17:46;14.35;;;5.55;;
61391;SDS011;47261;52.892;5.738;2023-05-10T04:20:12;14.93;;;6.70;;
61391;SDS011;47261;52.892;5.738;2023-05-10T04:22:37;12.73;;;5.20;;
61391;SDS011;47261;52.892;5.738;2023-05-10T04:25:03;12.83;;;5.97;;
61391;SDS011;47261;52.892;5.738;2023-05-10T04:27:29;12.38;;;5.45;;
61391;SDS011;47261;52.892;5.738;2023-05-10T04:29:56;11.13;;;4.68;;
61391;SDS011;47261;52.892;5.738;2023-05-10T04:32:21;11.40;;;5.22;;
61391;SDS011;47261;52.892;5.738;2023-05-10T04:34:47;12.10;;;5.53;;
61391;SDS011;47261;52.892;5.738;2023-05-10T04:37:13;12.13;;;5.13;;
61391;SDS011;47261;52.892;5.738;2023-05-10T04:39:38;8.97;;;4.50;;
61391;SDS011;47261;52.892;5.738;2023-05-10T04:42:04;11.57;;;5.10;;
61391;SDS011;47261;52.892;5.738;2023-05-10T04:44:31;12.47;;;5.70;;
61391;SDS011;47261;52.892;5.738;2023-05-10T04:46:57;11.73;;;5.35;;
61391;SDS011;47261;52.892;5.738;2023-05-10T04:49:22;13.02;;;6.32;;
61391;SDS011;47261;52.892;5.738;2023-05-10T04:51:48;12.83;;;6.27;;
61391;SDS011;47261;52.892;5.738;2023-05-10T04:54:14;23.60;;;9.07;;
61391;SDS011;47261;52.892;5.738;2023-05-10T04:56:40;19.67;;;7.83;;
61391;SDS011;47261;52.892;5.738;2023-05-10T04:59:06;23.73;;;9.02;;
61391;SDS011;47261;52.892;5.738;2023-05-10T05:01:31;20.25;;;7.68;;
61391;SDS011;47261;52.892;5.738;2023-05-10T05:03:57;19.93;;;7.20;;
61391;SDS011;47261;52.892;5.738;2023-05-10T05:06:23;23.98;;;8.43;;
61391;SDS011;47261;52.892;5.738;2023-05-10T05:08:50;20.27;;;8.30;;
61391;SDS011;47261;52.892;5.738;2023-05-10T05:11:15;22.10;;;7.90;;
61391;SDS011;47261;52.892;5.738;2023-05-10T05:13:42;18.17;;;7.53;;
61391;SDS011;47261;52.892;5.738;2023-05-10T05:16:08;23.00;;;8.52;;
61391;SDS011;47261;52.892;5.738;2023-05-10T05:18:33;26.35;;;7.82;;
61391;SDS011;47261;52.892;5.738;2023-05-10T05:20:59;23.53;;;8.23;;
61391;SDS011;47261;52.892;5.738;2023-05-10T05:23:25;27.92;;;7.70;;
61391;SDS011;47261;52.892;5.738;2023-05-10T05:25:52;26.08;;;8.20;;
61391;SDS011;47261;52.892;5.738;2023-05-10T05:28:18;25.90;;;7.70;;
61391;SDS011;47261;52.892;5.738;2023-05-10T05:30:47;28.40;;;7.50;;
61391;SDS011;47261;52.892;5.738;2023-05-10T05:33:13;32.92;;;8.05;;
61391;SDS011;47261;52.892;5.738;2023-05-10T05:35:40;34.88;;;8.65;;
61391;SDS011;47261;52.892;5.738;2023-05-10T05:38:07;24.03;;;6.57;;
61391;SDS011;47261;52.892;5.738;2023-05-10T05:40:33;25.90;;;7.25;;
61391;SDS011;47261;52.892;5.738;2023-05-10T05:42:59;30.57;;;8.10;;
61391;SDS011;47261;52.892;5.738;2023-05-10T05:45:24;28.25;;;8.27;;
61391;SDS011;47261;52.892;5.738;2023-05-10T05:47:50;32.63;;;8.90;;
61391;SDS011;47261;52.892;5.738;2023-05-10T05:50:16;32.88;;;9.07;;
61391;SDS011;47261;52.892;5.738;2023-05-10T05:52:41;34.07;;;9.47;;
61391;SDS011;47261;52.892;5.738;2023-05-10T05:55:07;31.10;;;8.10;;
61391;SDS011;47261;52.892;5.738;2023-05-10T05:57:33;24.73;;;7.25;;
61391;SDS011;47261;52.892;5.738;2023-05-10T05:59:58;32.57;;;9.30;;
61391;SDS011;47261;52.892;5.738;2023-05-10T06:02:24;40.22;;;10.02;;
61391;SDS011;47261;52.892;5.738;2023-05-10T06:04:50;27.67;;;7.50;;
61391;SDS011;47261;52.892;5.738;2023-05-10T06:07:15;31.98;;;8.00;;
61391;SDS011;47261;52.892;5.738;2023-05-10T06:09:41;36.37;;;9.30;;
61391;SDS011;47261;52.892;5.738;2023-05-10T06:12:07;36.25;;;9.75;;
61391;SDS011;47261;52.892;5.738;2023-05-10T06:14:32;31.23;;;9.13;;
61391;SDS011;47261;52.892;5.738;2023-05-10T06:16:58;40.13;;;10.95;;
61391;SDS011;47261;52.892;5.738;2023-05-10T06:19:25;42.83;;;9.70;;
61391;SDS011;47261;52.892;5.738;2023-05-10T06:21:51;34.38;;;9.85;;
61391;SDS011;47261;52.892;5.738;2023-05-10T06:24:17;35.55;;;10.18;;
61391;SDS011;47261;52.892;5.738;2023-05-10T06:26:42;39.70;;;11.20;;
61391;SDS011;47261;52.892;5.738;2023-05-10T06:29:08;39.37;;;11.00;;
61391;SDS011;47261;52.892;5.738;2023-05-10T06:31:33;37.07;;;11.57;;
61391;SDS011;47261;52.892;5.738;2023-05-10T06:33:59;30.03;;;9.13;;
61391;SDS011;47261;52.892;5.738;2023-05-10T06:36:25;32.07;;;10.17;;
61391;SDS011;47261;52.892;5.738;2023-05-10T06:38:52;36.15;;;11.98;;
61391;SDS011;47261;52.892;5.738;2023-05-10T06:41:17;37.23;;;11.60;;
61391;SDS011;47261;52.892;5.738;2023-05-10T06:43:43;38.13;;;12.38;;
61391;SDS011;47261;52.892;5.738;2023-05-10T06:46:09;33.17;;;11.40;;
61391;SDS011;47261;52.892;5.738;2023-05-10T06:48:34;35.75;;;12.70;;
61391;SDS011;47261;52.892;5.738;2023-05-10T06:51:00;38.50;;;13.13;;
61391;SDS011;47261;52.892;5.738;2023-05-10T06:53:26;35.25;;;11.63;;
61391;SDS011;47261;52.892;5.738;2023-05-10T06:55:52;34.42;;;12.57;;
61391;SDS011;47261;52.892;5.738;2023-05-10T06:58:17;33.97;;;12.00;;
61391;SDS011;47261;52.892;5.738;2023-05-10T07:00:43;38.80;;;12.37;;
61391;SDS011;47261;52.892;5.738;2023-05-10T07:03:10;37.58;;;13.30;;
61391;SDS011;47261;52.892;5.738;2023-05-10T07:05:36;41.00;;;13.57;;
61391;SDS011;47261;52.892;5.738;2023-05-10T07:08:01;45.33;;;13.77;;
61391;SDS011;47261;52.892;5.738;2023-05-10T07:10:27;33.83;;;11.75;;
61391;SDS011;47261;52.892;5.738;2023-05-10T07:12:53;34.33;;;12.30;;
61391;SDS011;47261;52.892;5.738;2023-05-10T07:15:19;37.15;;;12.32;;
61391;SDS011;47261;52.892;5.738;2023-05-10T07:17:44;36.43;;;13.10;;
61391;SDS011;47261;52.892;5.738;2023-05-10T07:20:10;41.60;;;13.77;;
61391;SDS011;47261;52.892;5.738;2023-05-10T07:22:36;32.05;;;11.00;;
61391;SDS011;47261;52.892;5.738;2023-05-10T07:25:02;25.27;;;10.00;;
61391;SDS011;47261;52.892;5.738;2023-05-10T07:27:28;28.30;;;10.60;;
61391;SDS011;47261;52.892;5.738;2023-05-10T07:29:54;24.13;;;10.20;;
61391;SDS011;47261;52.892;5.738;2023-05-10T07:32:20;23.03;;;8.87;;
61391;SDS011;47261;52.892;5.738;2023-05-10T07:34:46;16.20;;;7.40;;
61391;SDS011;47261;52.892;5.738;2023-05-10T07:37:11;11.45;;;5.35;;
61391;SDS011;47261;52.892;5.738;2023-05-10T07:39:37;10.73;;;4.20;;
61391;SDS011;47261;52.892;5.738;2023-05-10T07:42:03;9.70;;;4.10;;
61391;SDS011;47261;52.892;5.738;2023-05-10T07:44:28;10.90;;;4.60;;
61391;SDS011;47261;52.892;5.738;2023-05-10T07:46:54;10.30;;;4.33;;
61391;SDS011;47261;52.892;5.738;2023-05-10T07:49:20;8.48;;;3.83;;
61391;SDS011;47261;52.892;5.738;2023-05-10T07:51:46;8.23;;;4.30;;
61391;SDS011;47261;52.892;5.738;2023-05-10T07:54:12;9.30;;;4.43;;
61391;SDS011;47261;52.892;5.738;2023-05-10T07:56:38;8.25;;;3.55;;
61391;SDS011;47261;52.892;5.738;2023-05-10T07:59:09;9.90;;;4.68;;
61391;SDS011;47261;52.892;5.738;2023-05-10T08:01:35;11.60;;;4.23;;
61391;SDS011;47261;52.892;5.738;2023-05-10T08:04:01;11.00;;;4.63;;
61391;SDS011;47261;52.892;5.738;2023-05-10T08:06:27;12.10;;;4.68;;
61391;SDS011;47261;52.892;5.738;2023-05-10T08:08:54;13.65;;;5.90;;
61391;SDS011;47261;52.892;5.738;2023-05-10T08:11:20;14.13;;;6.67;;
61391;SDS011;47261;52.892;5.738;2023-05-10T08:13:46;16.48;;;6.60;;
61391;SDS011;47261;52.892;5.738;2023-05-10T08:16:13;18.33;;;7.40;;
61391;SDS011;47261;52.892;5.738;2023-05-10T08:18:39;18.27;;;7.77;;
61391;SDS011;47261;52.892;5.738;2023-05-10T08:21:05;20.17;;;8.98;;
61391;SDS011;47261;52.892;5.738;2023-05-10T08:23:31;19.30;;;9.45;;
61391;SDS011;47261;52.892;5.738;2023-05-10T08:25:57;18.60;;;8.43;;
61391;SDS011;47261;52.892;5.738;2023-05-10T08:28:22;13.50;;;6.80;;
61391;SDS011;47261;52.892;5.738;2023-05-10T08:30:49;17.00;;;7.03;;
61391;SDS011;47261;52.892;5.738;2023-05-10T08:33:15;11.77;;;5.78;;
61391;SDS011;47261;52.892;5.738;2023-05-10T08:35:42;14.88;;;6.70;;
61391;SDS011;47261;52.892;5.738;2023-05-10T08:38:08;15.27;;;6.97;;
61391;SDS011;47261;52.892;5.738;2023-05-10T08:40:33;13.85;;;7.15;;
61391;SDS011;47261;52.892;5.738;2023-05-10T08:43:05;12.77;;;4.50;;
61391;SDS011;47261;52.892;5.738;2023-05-10T08:45:33;9.63;;;4.28;;
61391;SDS011;47261;52.892;5.738;2023-05-10T08:48:02;10.15;;;4.55;;
61391;SDS011;47261;52.892;5.738;2023-05-10T08:50:31;8.02;;;3.92;;
61391;SDS011;47261;52.892;5.738;2023-05-10T08:52:57;7.90;;;3.40;;
61391;SDS011;47261;52.892;5.738;2023-05-10T08:55:26;9.38;;;4.00;;
61391;SDS011;47261;52.892;5.738;2023-05-10T08:57:53;8.32;;;3.30;;
61391;SDS011;47261;52.892;5.738;2023-05-10T09:00:18;8.23;;;3.05;;
61391;SDS011;47261;52.892;5.738;2023-05-10T09:02:45;7.38;;;3.40;;
61391;SDS011;47261;52.892;5.738;2023-05-10T09:05:13;9.30;;;3.70;;
61391;SDS011;47261;52.892;5.738;2023-05-10T09:07:41;8.30;;;3.47;;
61391;SDS011;47261;52.892;5.738;2023-05-10T09:10:07;9.77;;;3.97;;
61391;SDS011;47261;52.892;5.738;2023-05-10T09:12:34;8.43;;;3.72;;
61391;SDS011;47261;52.892;5.738;2023-05-10T09:15:00;7.65;;;3.22;;
61391;SDS011;47261;52.892;5.738;2023-05-10T09:17:28;13.83;;;6.10;;
61391;SDS011;47261;52.892;5.738;2023-05-10T09:19:58;10.32;;;4.47;;
61391;SDS011;47261;52.892;5.738;2023-05-10T09:22:25;11.40;;;5.50;;
61391;SDS011;47261;52.892;5.738;2023-05-10T09:25:10;15.57;;;7.10;;
61391;SDS011;47261;52.892;5.738;2023-05-10T09:27:41;14.88;;;5.30;;
61391;SDS011;47261;52.892;5.738;2023-05-10T09:30:16;12.40;;;4.80;;
61391;SDS011;47261;52.892;5.738;2023-05-10T09:32:53;17.17;;;6.25;;
61391;SDS011;47261;52.892;5.738;2023-05-10T09:35:21;16.05;;;7.50;;
61391;SDS011;47261;52.892;5.738;2023-05-10T09:37:52;17.92;;;7.53;;
61391;SDS011;47261;52.892;5.738;2023-05-10T09:40:20;16.85;;;6.38;;
61391;SDS011;47261;52.892;5.738;2023-05-10T09:42:52;17.90;;;6.57;;
61391;SDS011;47261;52.892;5.738;2023-05-10T09:45:18;17.00;;;7.38;;
61391;SDS011;47261;52.892;5.738;2023-05-10T09:47:44;19.27;;;7.78;;
61391;SDS011;47261;52.892;5.738;2023-05-10T09:50:10;17.38;;;7.57;;
61391;SDS011;47261;52.892;5.738;2023-05-10T09:52:46;20.03;;;7.30;;
61391;SDS011;47261;52.892;5.738;2023-05-10T09:55:12;17.73;;;7.30;;
61391;SDS011;47261;52.892;5.738;2023-05-10T09:57:37;15.10;;;6.33;;
61391;SDS011;47261;52.892;5.738;2023-05-10T10:00:04;17.35;;;6.72;;
61391;SDS011;47261;52.892;5.738;2023-05-10T10:02:31;13.48;;;5.78;;
61391;SDS011;47261;52.892;5.738;2023-05-10T10:04:56;12.05;;;6.20;;
61391;SDS011;47261;52.892;5.738;2023-05-10T10:07:24;18.03;;;6.20;;
61391;SDS011;47261;52.892;5.738;2023-05-10T10:09:50;16.90;;;7.32;;
61391;SDS011;47261;52.892;5.738;2023-05-10T10:12:16;16.83;;;8.15;;
61391;SDS011;47261;52.892;5.738;2023-05-10T10:14:42;21.67;;;9.27;;
61391;SDS011;47261;52.892;5.738;2023-05-10T10:17:08;18.83;;;8.43;;
61391;SDS011;47261;52.892;5.738;2023-05-10T10:19:34;20.50;;;9.82;;
61391;SDS011;47261;52.892;5.738;2023-05-10T10:22:01;20.83;;;8.95;;
61391;SDS011;47261;52.892;5.738;2023-05-10T10:24:27;19.40;;;8.82;;
61391;SDS011;47261;52.892;5.738;2023-05-10T10:26:54;18.97;;;9.00;;
61391;SDS011;47261;52.892;5.738;2023-05-10T10:29:35;16.05;;;8.43;;
61391;SDS011;47261;52.892;5.738;2023-05-10T10:32:42;16.25;;;7.55;;
61391;SDS011;47261;52.892;5.738;2023-05-10T10:35:20;17.13;;;8.73;;
61391;SDS011;47261;52.892;5.738;2023-05-10T10:37:47;17.93;;;9.40;;
61391;SDS011;47261;52.892;5.738;2023-05-10T10:40:27;15.10;;;7.93;;
61391;SDS011;47261;52.892;5.738;2023-05-10T10:42:57;15.27;;;7.85;;
61391;SDS011;47261;52.892;5.738;2023-05-10T10:45:24;17.92;;;7.45;;
61391;SDS011;47261;52.892;5.738;2023-05-10T10:48:19;14.52;;;7.38;;
61391;SDS011;47261;52.892;5.738;2023-05-10T10:50:46;13.37;;;6.77;;
61391;SDS011;47261;52.892;5.738;2023-05-10T10:53:12;13.10;;;6.75;;
61391;SDS011;47261;52.892;5.738;2023-05-10T10:55:47;12.10;;;6.37;;
61391;SDS011;47261;52.892;5.738;2023-05-10T10:58:29;11.20;;;4.80;;
61391;SDS011;47261;52.892;5.738;2023-05-10T11:01:15;10.68;;;5.57;;
61391;SDS011;47261;52.892;5.738;2023-05-10T11:04:27;12.25;;;5.75;;
61391;SDS011;47261;52.892;5.738;2023-05-10T11:06:34;10.68;;;4.95;;
61391;SDS011;47261;52.892;5.738;2023-05-10T11:09:07;10.13;;;5.28;;
61391;SDS011;47261;52.892;5.738;2023-05-10T11:11:34;11.20;;;5.63;;
61391;SDS011;47261;52.892;5.738;2023-05-10T11:14:04;11.05;;;5.25;;
61391;SDS011;47261;52.892;5.738;2023-05-10T11:16:41;11.77;;;5.78;;
61391;SDS011;47261;52.892;5.738;2023-05-10T11:19:11;12.05;;;5.53;;
61391;SDS011;47261;52.892;5.738;2023-05-10T11:21:51;14.77;;;7.03;;
61391;SDS011;47261;52.892;5.738;2023-05-10T11:24:36;11.50;;;6.10;;
61391;SDS011;47261;52.892;5.738;2023-05-10T11:27:02;13.77;;;6.68;;
61391;SDS011;47261;52.892;5.738;2023-05-10T11:29:28;13.37;;;6.87;;
61391;SDS011;47261;52.892;5.738;2023-05-10T11:31:53;12.32;;;6.03;;
61391;SDS011;47261;52.892;5.738;2023-05-10T11:34:29;12.35;;;6.07;;
61391;SDS011;47261;52.892;5.738;2023-05-10T11:36:58;12.57;;;6.75;;
61391;SDS011;47261;52.892;5.738;2023-05-10T11:39:28;15.10;;;7.70;;
61391;SDS011;47261;52.892;5.738;2023-05-10T11:41:55;12.95;;;6.88;;
61391;SDS011;47261;52.892;5.738;2023-05-10T11:44:21;14.10;;;7.07;;
61391;SDS011;47261;52.892;5.738;2023-05-10T11:46:47;12.17;;;6.53;;
61391;SDS011;47261;52.892;5.738;2023-05-10T11:49:13;14.43;;;7.00;;
61391;SDS011;47261;52.892;5.738;2023-05-10T11:51:39;16.13;;;8.05;;
61391;SDS011;47261;52.892;5.738;2023-05-10T11:54:07;14.75;;;7.85;;
61391;SDS011;47261;52.892;5.738;2023-05-10T11:56:34;18.90;;;8.60;;
61391;SDS011;47261;52.892;5.738;2023-05-10T11:59:00;15.55;;;8.07;;
61391;SDS011;47261;52.892;5.738;2023-05-10T12:01:27;15.45;;;8.32;;
61391;SDS011;47261;52.892;5.738;2023-05-10T12:03:54;13.75;;;7.70;;
61391;SDS011;47261;52.892;5.738;2023-05-10T12:06:28;13.63;;;6.90;;
61391;SDS011;47261;52.892;5.738;2023-05-10T12:08:56;16.90;;;8.45;;
61391;SDS011;47261;52.892;5.738;2023-05-10T12:11:24;14.32;;;6.10;;
61391;SDS011;47261;52.892;5.738;2023-05-10T12:13:52;12.48;;;5.82;;
61391;SDS011;47261;52.892;5.738;2023-05-10T12:16:21;12.37;;;6.27;;
61391;SDS011;47261;52.892;5.738;2023-05-10T12:18:52;15.32;;;6.82;;
61391;SDS011;47261;52.892;5.738;2023-05-10T12:21:22;12.52;;;6.80;;
61391;SDS011;47261;52.892;5.738;2023-05-10T12:23:49;11.15;;;6.57;;
61391;SDS011;47261;52.892;5.738;2023-05-10T12:26:16;10.48;;;5.55;;
61391;SDS011;47261;52.892;5.738;2023-05-10T12:28:42;12.53;;;5.37;;
61391;SDS011;47261;52.892;5.738;2023-05-10T12:31:08;12.68;;;6.05;;
61391;SDS011;47261;52.892;5.738;2023-05-10T12:33:37;11.20;;;5.70;;
61391;SDS011;47261;52.892;5.738;2023-05-10T12:36:04;11.50;;;5.75;;
61391;SDS011;47261;52.892;5.738;2023-05-10T12:40:59;10.07;;;5.47;;
61391;SDS011;47261;52.892;5.738;2023-05-10T12:43:27;9.60;;;5.07;;
61391;SDS011;47261;52.892;5.738;2023-05-10T12:45:53;11.32;;;6.50;;
61391;SDS011;47261;52.892;5.738;2023-05-10T12:48:18;13.27;;;7.40;;
61391;SDS011;47261;52.892;5.738;2023-05-10T12:50:45;12.33;;;6.50;;
61391;SDS011;47261;52.892;5.738;2023-05-10T12:53:10;15.43;;;7.93;;
61391;SDS011;47261;52.892;5.738;2023-05-10T12:55:38;12.57;;;6.30;;
61391;SDS011;47261;52.892;5.738;2023-05-10T12:58:03;12.57;;;7.03;;
61391;SDS011;47261;52.892;5.738;2023-05-10T13:00:29;14.23;;;7.18;;
61391;SDS011;47261;52.892;5.738;2023-05-10T13:02:55;12.27;;;6.40;;
61391;SDS011;47261;52.892;5.738;2023-05-10T13:05:20;12.23;;;5.28;;
61391;SDS011;47261;52.892;5.738;2023-05-10T13:07:46;14.43;;;5.77;;
61391;SDS011;47261;52.892;5.738;2023-05-10T13:10:12;11.60;;;5.00;;
61391;SDS011;47261;52.892;5.738;2023-05-10T13:12:37;10.43;;;5.73;;
61391;SDS011;47261;52.892;5.738;2023-05-10T13:15:03;15.80;;;5.43;;
61391;SDS011;47261;52.892;5.738;2023-05-10T13:17:29;9.10;;;5.18;;
61391;SDS011;47261;52.892;5.738;2023-05-10T13:19:55;13.13;;;6.83;;
61391;SDS011;47261;52.892;5.738;2023-05-10T13:22:20;10.17;;;5.57;;
61391;SDS011;47261;52.892;5.738;2023-05-10T13:24:46;13.30;;;5.60;;
61391;SDS011;47261;52.892;5.738;2023-05-10T13:27:11;10.48;;;4.95;;
61391;SDS011;47261;52.892;5.738;2023-05-10T13:29:37;8.87;;;5.07;;
61391;SDS011;47261;52.892;5.738;2023-05-10T13:32:02;8.70;;;3.53;;
61391;SDS011;47261;52.892;5.738;2023-05-10T13:34:28;10.33;;;4.70;;
61391;SDS011;47261;52.892;5.738;2023-05-10T13:36:54;9.80;;;4.10;;
61391;SDS011;47261;52.892;5.738;2023-05-10T13:39:21;10.68;;;5.15;;
61391;SDS011;47261;52.892;5.738;2023-05-10T13:41:47;9.50;;;5.10;;
61391;SDS011;47261;52.892;5.738;2023-05-10T13:44:13;9.65;;;4.85;;
61391;SDS011;47261;52.892;5.738;2023-05-10T13:46:40;10.47;;;5.07;;
61391;SDS011;47261;52.892;5.738;2023-05-10T13:49:06;10.32;;;4.90;;
61391;SDS011;47261;52.892;5.738;2023-05-10T13:51:33;9.18;;;4.97;;
61391;SDS011;47261;52.892;5.738;2023-05-10T13:53:58;11.25;;;5.72;;
61391;SDS011;47261;52.892;5.738;2023-05-10T13:56:24;11.17;;;5.17;;
61391;SDS011;47261;52.892;5.738;2023-05-10T13:58:50;12.05;;;6.25;;
61391;SDS011;47261;52.892;5.738;2023-05-10T14:01:16;12.27;;;5.50;;
61391;SDS011;47261;52.892;5.738;2023-05-10T14:03:42;11.18;;;5.78;;
61391;SDS011;47261;52.892;5.738;2023-05-10T14:06:07;10.07;;;4.80;;
61391;SDS011;47261;52.892;5.738;2023-05-10T14:08:33;9.98;;;5.53;;
61391;SDS011;47261;52.892;5.738;2023-05-10T14:11:00;9.55;;;5.13;;
61391;SDS011;47261;52.892;5.738;2023-05-10T14:13:26;8.27;;;4.40;;
61391;SDS011;47261;52.892;5.738;2023-05-10T14:15:52;10.93;;;4.37;;
61391;SDS011;47261;52.892;5.738;2023-05-10T14:18:19;7.90;;;4.10;;
61391;SDS011;47261;52.892;5.738;2023-05-10T14:20:44;7.87;;;3.60;;
61391;SDS011;47261;52.892;5.738;2023-05-10T14:23:10;6.83;;;2.87;;
61391;SDS011;47261;52.892;5.738;2023-05-10T14:25:36;9.95;;;4.32;;
61391;SDS011;47261;52.892;5.738;2023-05-10T14:28:03;8.25;;;4.53;;
61391;SDS011;47261;52.892;5.738;2023-05-10T14:30:28;7.90;;;3.70;;
61391;SDS011;47261;52.892;5.738;2023-05-10T14:32:54;6.78;;;2.85;;
61391;SDS011;47261;52.892;5.738;2023-05-10T14:35:20;7.27;;;2.80;;
61391;SDS011;47261;52.892;5.738;2023-05-10T14:37:46;7.65;;;3.15;;
61391;SDS011;47261;52.892;5.738;2023-05-10T14:40:12;6.10;;;2.97;;
61391;SDS011;47261;52.892;5.738;2023-05-10T14:42:37;8.70;;;3.60;;
61391;SDS011;47261;52.892;5.738;2023-05-10T14:45:03;8.88;;;4.50;;
61391;SDS011;47261;52.892;5.738;2023-05-10T14:47:29;7.93;;;4.28;;
61391;SDS011;47261;52.892;5.738;2023-05-10T14:49:55;8.37;;;4.40;;
61391;SDS011;47261;52.892;5.738;2023-05-10T14:52:20;5.97;;;2.93;;
61391;SDS011;47261;52.892;5.738;2023-05-10T14:54:46;7.45;;;3.65;;
61391;SDS011;47261;52.892;5.738;2023-05-10T14:57:12;8.63;;;3.80;;
61391;SDS011;47261;52.892;5.738;2023-05-10T14:59:38;7.88;;;4.10;;
61391;SDS011;47261;52.892;5.738;2023-05-10T15:02:03;8.37;;;3.87;;
61391;SDS011;47261;52.892;5.738;2023-05-10T15:04:29;8.38;;;3.00;;
61391;SDS011;47261;52.892;5.738;2023-05-10T15:06:55;6.43;;;2.90;;
61391;SDS011;47261;52.892;5.738;2023-05-10T15:09:24;5.97;;;2.50;;
61391;SDS011;47261;52.892;5.738;2023-05-10T15:11:50;7.70;;;3.05;;
61391;SDS011;47261;52.892;5.738;2023-05-10T15:14:16;6.30;;;3.20;;
61391;SDS011;47261;52.892;5.738;2023-05-10T15:16:41;6.90;;;3.20;;
61391;SDS011;47261;52.892;5.738;2023-05-10T15:19:07;4.83;;;2.43;;
61391;SDS011;47261;52.892;5.738;2023-05-10T15:21:33;8.48;;;4.00;;
61391;SDS011;47261;52.892;5.738;2023-05-10T15:24:04;6.93;;;2.87;;
61391;SDS011;47261;52.892;5.738;2023-05-10T15:26:30;7.05;;;2.92;;
61391;SDS011;47261;52.892;5.738;2023-05-10T15:28:56;9.02;;;3.80;;
61391;SDS011;47261;52.892;5.738;2023-05-10T15:31:22;7.25;;;3.72;;
61391;SDS011;47261;52.892;5.738;2023-05-10T15:33:47;8.70;;;4.17;;